createdAt,value
2017-10-09T00:01:55.811Z,65.90
2017-10-09T00:04:23.348Z,66.00
2017-10-09T00:06:50.929Z,66.00
2017-10-09T00:09:18.501Z,66.00
2017-10-09T00:11:46.035Z,66.10
2017-10-09T00:14:13.571Z,66.10
2017-10-09T00:16:41.943Z,66.10
2017-10-09T00:19:10.290Z,66.30
2017-10-09T00:21:37.860Z,66.20
2017-10-09T00:24:05.395Z,66.30
2017-10-09T00:26:32.973Z,66.20
2017-10-09T00:29:00.562Z,66.30
2017-10-09T00:31:28.865Z,66.50
2017-10-09T00:33:56.402Z,66.40
2017-10-09T00:36:24.741Z,66.40
2017-10-09T00:38:52.327Z,66.40
2017-10-09T00:41:20.642Z,66.60
2017-10-09T00:43:48.181Z,66.50
2017-10-09T00:46:16.525Z,66.60
2017-10-09T00:48:44.070Z,66.60
2017-10-09T00:51:11.658Z,66.60
2017-10-09T00:53:39.198Z,66.70
2017-10-09T00:56:06.738Z,66.70
2017-10-09T00:58:34.325Z,66.60
2017-10-09T01:01:01.897Z,66.70
2017-10-09T01:03:29.438Z,66.80
2017-10-09T01:05:57.078Z,66.90
2017-10-09T01:08:24.612Z,66.90
2017-10-09T01:10:52.148Z,66.90
2017-10-09T01:13:20.514Z,66.90
2017-10-09T01:15:48.052Z,66.80
2017-10-09T01:18:15.589Z,67.00
2017-10-09T01:20:43.174Z,67.10
2017-10-09T01:23:10.723Z,67.10
2017-10-09T01:25:38.265Z,67.10
2017-10-09T01:28:05.849Z,67.20
2017-10-09T01:30:33.392Z,67.10
2017-10-09T01:33:00.932Z,67.20
2017-10-09T01:35:28.512Z,67.20
2017-10-09T01:37:56.048Z,67.20
2017-10-09T01:40:23.634Z,67.30
2017-10-09T01:42:51.208Z,67.30
2017-10-09T01:45:18.744Z,67.30
2017-10-09T01:47:46.280Z,67.40
2017-10-09T01:50:14.616Z,67.50
2017-10-09T01:52:42.152Z,67.50
2017-10-09T01:55:09.721Z,67.50
2017-10-09T01:57:37.306Z,67.50
2017-10-09T02:03:01.118Z,67.60
2017-10-09T02:05:29.462Z,67.70
2017-10-09T02:07:57.033Z,67.60
2017-10-09T02:10:24.604Z,67.80
2017-10-09T02:12:52.184Z,67.80
2017-10-09T02:15:20.476Z,67.90
2017-10-09T02:17:48.052Z,67.90
2017-10-09T02:20:15.600Z,67.90
2017-10-09T02:22:43.167Z,68.10
2017-10-09T02:25:10.754Z,68.10
2017-10-09T02:27:38.287Z,68.00
2017-10-09T02:30:05.820Z,68.00
2017-10-09T02:32:34.153Z,68.10
2017-10-09T02:35:01.685Z,68.00
2017-10-09T02:37:29.260Z,68.20
2017-10-09T02:39:56.840Z,68.30
2017-10-09T02:42:24.379Z,68.30
2017-10-09T02:44:51.950Z,68.30
2017-10-09T02:47:19.515Z,68.30
2017-10-09T02:49:47.088Z,68.30
2017-10-09T02:52:14.627Z,68.40
2017-10-09T02:54:42.208Z,68.50
2017-10-09T02:57:09.740Z,68.50
2017-10-09T02:59:37.275Z,68.50
2017-10-09T03:02:04.846Z,68.70
2017-10-09T03:04:32.379Z,68.70
2017-10-09T03:07:00.716Z,68.80
2017-10-09T03:09:28.251Z,68.70
2017-10-09T03:11:55.832Z,68.70
2017-10-09T03:14:23.370Z,68.80
2017-10-09T03:16:50.955Z,68.90
2017-10-09T03:19:18.490Z,68.80
2017-10-09T03:21:46.033Z,68.80
2017-10-09T03:24:16.672Z,68.90
2017-10-09T03:26:47.131Z,69.00
2017-10-09T03:29:17.434Z,69.00
2017-10-09T03:31:44.968Z,69.00
2017-10-09T03:34:13.272Z,69.20
2017-10-09T03:36:40.843Z,69.10
2017-10-09T03:39:08.376Z,69.20
2017-10-09T03:41:36.070Z,69.30
2017-10-09T03:44:03.605Z,69.30
2017-10-09T03:46:31.137Z,69.30
2017-10-09T03:48:59.467Z,69.20
2017-10-09T03:51:27.042Z,69.20
2017-10-09T03:53:54.577Z,69.30
2017-10-09T03:56:22.169Z,69.30
2017-10-09T03:58:51.208Z,69.30
2017-10-09T04:01:18.745Z,69.30
2017-10-09T04:03:47.100Z,69.40
2017-10-09T04:06:14.726Z,69.30
2017-10-09T04:08:42.589Z,69.40
2017-10-09T04:11:10.293Z,69.40
2017-10-09T04:13:37.893Z,69.50
2017-10-09T04:16:05.429Z,69.50
2017-10-09T04:18:33.812Z,69.60
2017-10-09T04:21:02.115Z,69.60
2017-10-09T04:23:29.685Z,69.60
2017-10-09T04:25:57.375Z,69.50
2017-10-09T04:28:24.960Z,69.60
2017-10-09T04:30:52.492Z,69.70
2017-10-09T04:33:20.078Z,69.70
2017-10-09T04:35:48.377Z,69.80
2017-10-09T04:38:16.679Z,69.90
2017-10-09T04:40:44.248Z,69.80
2017-10-09T04:43:11.829Z,69.90
2017-10-09T04:45:39.363Z,69.90
2017-10-09T04:48:06.895Z,69.90
2017-10-09T04:50:35.227Z,70.10
2017-10-09T04:53:02.769Z,70.10
2017-10-09T04:55:30.341Z,70.10
2017-10-09T04:57:57.879Z,70.10
2017-10-09T05:00:25.450Z,70.10
2017-10-09T05:02:52.993Z,70.20
2017-10-09T05:05:20.568Z,70.20
2017-10-09T05:07:48.113Z,70.20
2017-10-09T05:10:15.677Z,70.20
2017-10-09T05:12:43.265Z,70.20
2017-10-09T05:15:10.795Z,70.30
2017-10-09T05:17:38.333Z,70.40
2017-10-09T05:20:06.745Z,70.60
2017-10-09T05:22:34.307Z,70.60
2017-10-09T05:25:01.860Z,70.70
2017-10-09T05:27:29.447Z,70.80
2017-10-09T05:29:56.989Z,70.80
2017-10-09T05:32:24.523Z,70.80
2017-10-09T05:34:52.096Z,71.00
2017-10-09T05:37:19.635Z,71.00
2017-10-09T05:39:47.932Z,71.20
2017-10-09T05:42:15.506Z,71.10
2017-10-09T05:44:43.039Z,71.20
2017-10-09T05:47:10.609Z,71.40
2017-10-09T05:49:38.181Z,71.50
2017-10-09T05:52:05.752Z,71.60
2017-10-09T05:54:33.317Z,71.50
2017-10-09T05:57:00.901Z,71.50
2017-10-09T05:59:28.435Z,71.50
2017-10-09T06:01:55.975Z,71.60
2017-10-09T06:04:30.101Z,71.60
2017-10-09T06:06:57.660Z,71.70
2017-10-09T06:09:25.231Z,71.80
2017-10-09T06:11:52.765Z,71.70
2017-10-09T06:14:20.341Z,71.90
2017-10-09T06:16:48.058Z,72.00
2017-10-09T06:19:16.364Z,72.10
2017-10-09T06:21:43.939Z,72.00
2017-10-09T06:24:11.480Z,72.00
2017-10-09T06:26:39.061Z,72.10
2017-10-09T06:29:06.600Z,72.10
2017-10-09T06:31:34.194Z,72.20
2017-10-09T06:34:01.744Z,72.20
2017-10-09T06:36:29.321Z,73.00
2017-10-09T06:38:56.855Z,72.30
2017-10-09T06:41:24.428Z,72.40
2017-10-09T06:43:51.966Z,72.50
2017-10-09T06:46:19.568Z,72.50
2017-10-09T06:48:48.004Z,72.60
2017-10-09T06:51:15.579Z,72.70
2017-10-09T06:53:43.107Z,72.60
2017-10-09T06:56:10.701Z,72.70
2017-10-09T06:58:38.239Z,72.70
2017-10-09T07:01:05.819Z,72.70
2017-10-09T07:03:33.358Z,72.90
2017-10-09T07:06:00.936Z,72.90
2017-10-09T07:08:28.462Z,72.90
2017-10-09T07:10:56.797Z,73.00
2017-10-09T07:13:24.336Z,72.90
2017-10-09T07:15:51.928Z,73.10
2017-10-09T07:18:19.472Z,73.10
2017-10-09T07:20:47.008Z,73.20
2017-10-09T07:23:14.581Z,73.30
2017-10-09T07:25:42.116Z,73.30
2017-10-09T07:28:09.691Z,73.30
2017-10-09T07:30:37.236Z,73.30
2017-10-09T07:33:04.815Z,73.50
2017-10-09T07:35:32.355Z,73.50
2017-10-09T07:37:59.947Z,73.50
2017-10-09T07:40:27.490Z,73.60
2017-10-09T07:42:55.066Z,73.60
2017-10-09T07:45:22.597Z,73.80
2017-10-09T07:47:50.177Z,73.70
2017-10-09T07:50:17.721Z,73.80
2017-10-09T07:52:45.291Z,73.90
2017-10-09T07:55:12.820Z,73.90
2017-10-09T07:57:41.180Z,74.10
2017-10-09T08:00:08.716Z,74.00
2017-10-09T08:02:36.246Z,74.00
2017-10-09T08:05:03.825Z,74.10
2017-10-09T08:07:31.357Z,74.10
2017-10-09T08:09:58.980Z,74.20
2017-10-09T08:12:26.516Z,74.20
2017-10-09T08:14:54.098Z,74.40
2017-10-09T08:17:21.635Z,74.40
2017-10-09T08:19:49.213Z,74.40
2017-10-09T08:22:16.748Z,74.60
2017-10-09T08:24:44.328Z,74.70
2017-10-09T08:27:11.866Z,74.70
2017-10-09T08:29:39.440Z,74.70
2017-10-09T08:32:06.971Z,74.70
2017-10-09T08:34:34.545Z,74.70
2017-10-09T08:37:02.108Z,74.70
2017-10-09T08:39:30.571Z,74.80
2017-10-09T08:41:58.106Z,74.80
2017-10-09T08:44:25.676Z,74.90
2017-10-09T08:46:53.219Z,75.00
2017-10-09T08:49:21.560Z,75.00
2017-10-09T08:51:49.100Z,74.90
2017-10-09T08:54:16.674Z,75.00
2017-10-09T08:56:44.214Z,75.00
2017-10-09T08:59:11.789Z,75.10
2017-10-09T09:01:39.328Z,74.90
2017-10-09T09:04:06.999Z,75.10
2017-10-09T09:06:34.532Z,75.20
2017-10-09T09:09:02.129Z,75.20
2017-10-09T09:11:29.668Z,75.20
2017-10-09T09:13:57.206Z,75.20
2017-10-09T09:16:24.785Z,75.10
2017-10-09T09:18:52.326Z,75.20
2017-10-09T09:21:19.924Z,75.20
2017-10-09T09:23:47.460Z,75.20
2017-10-09T09:26:15.033Z,75.20
2017-10-09T09:28:42.589Z,75.20
2017-10-09T09:31:10.160Z,75.30
2017-10-09T09:33:37.699Z,75.20
2017-10-09T09:36:05.269Z,75.30
2017-10-09T09:38:32.809Z,75.40
2017-10-09T09:41:00.388Z,75.30
2017-10-09T09:43:27.932Z,75.20
2017-10-09T09:45:55.508Z,75.30
2017-10-09T09:48:23.238Z,75.10
2017-10-09T09:50:51.582Z,75.00
2017-10-09T09:53:19.120Z,74.90
2017-10-09T09:55:46.692Z,74.90
2017-10-09T09:58:14.245Z,75.10
2017-10-09T10:00:41.834Z,75.20
2017-10-09T10:03:09.361Z,75.80
2017-10-09T10:05:36.896Z,75.10
2017-10-09T10:08:04.468Z,75.40
2017-10-09T10:10:32.076Z,75.50
2017-10-09T10:12:59.617Z,75.50
2017-10-09T10:15:27.157Z,75.60
2017-10-09T10:17:54.732Z,75.50
2017-10-09T10:20:22.273Z,75.30
2017-10-09T10:22:49.847Z,75.30
2017-10-09T10:25:17.420Z,75.40
2017-10-09T10:27:44.959Z,75.30
2017-10-09T10:30:12.550Z,75.50
2017-10-09T10:32:40.097Z,75.40
2017-10-09T10:35:07.638Z,75.40
2017-10-09T10:37:35.206Z,75.30
2017-10-09T10:40:02.745Z,75.50
2017-10-09T10:42:30.308Z,75.70
2017-10-09T10:44:57.849Z,75.70
2017-10-09T10:47:25.415Z,75.70
2017-10-09T10:49:52.984Z,75.80
2017-10-09T10:52:20.526Z,75.80
2017-10-09T10:54:48.102Z,75.80
2017-10-09T10:57:15.636Z,75.90
2017-10-09T10:59:43.209Z,75.80
2017-10-09T11:02:10.785Z,75.90
2017-10-09T11:04:38.367Z,75.70
2017-10-09T11:07:05.904Z,75.70
2017-10-09T11:09:33.443Z,75.30
2017-10-09T11:12:01.028Z,75.90
2017-10-09T11:14:28.569Z,74.90
2017-10-09T11:16:56.158Z,74.80
2017-10-09T11:19:23.697Z,74.80
2017-10-09T11:21:51.227Z,74.60
2017-10-09T11:24:19.642Z,74.50
2017-10-09T11:26:47.173Z,74.30
2017-10-09T11:29:15.478Z,74.30
2017-10-09T11:31:43.052Z,74.30
2017-10-09T11:34:10.586Z,74.20
2017-10-09T11:36:38.124Z,74.60
2017-10-09T11:39:06.448Z,74.70
2017-10-09T11:41:34.092Z,74.50
2017-10-09T11:44:01.672Z,74.40
2017-10-09T11:46:29.208Z,74.40
2017-10-09T11:48:56.741Z,74.30
2017-10-09T11:51:25.080Z,74.50
2017-10-09T11:53:52.719Z,74.40
2017-10-09T11:56:20.252Z,74.50
2017-10-09T11:58:47.784Z,74.70
2017-10-09T12:01:15.376Z,74.70
2017-10-09T12:03:42.920Z,74.70
2017-10-09T12:06:11.212Z,74.80
2017-10-09T12:08:38.806Z,74.70
2017-10-09T12:11:06.339Z,74.70
2017-10-09T12:13:33.877Z,74.90
2017-10-09T12:16:02.211Z,74.80
2017-10-09T12:18:29.744Z,74.70
2017-10-09T12:20:57.316Z,74.70
2017-10-09T12:23:24.903Z,74.80
2017-10-09T12:25:52.438Z,74.60
2017-10-09T12:28:19.985Z,74.50
2017-10-09T12:30:47.617Z,74.20
2017-10-09T12:33:16.503Z,74.00
2017-10-09T12:35:44.835Z,74.10
2017-10-09T12:38:12.409Z,74.10
2017-10-09T12:40:39.950Z,74.10
2017-10-09T12:43:07.562Z,74.30
2017-10-09T12:45:35.876Z,74.20
2017-10-09T12:48:03.418Z,74.20
2017-10-09T12:50:31.004Z,74.20
2017-10-09T12:52:58.557Z,74.30
2017-10-09T12:55:26.087Z,74.30
2017-10-09T12:57:54.424Z,74.20
2017-10-09T13:00:21.956Z,74.20
2017-10-09T13:02:49.530Z,74.10
2017-10-09T13:05:17.832Z,74.00
2017-10-09T13:07:45.418Z,74.00
2017-10-09T13:10:12.962Z,74.10
2017-10-09T13:12:40.491Z,74.00
2017-10-09T13:15:08.067Z,74.20
2017-10-09T13:17:35.604Z,74.00
2017-10-09T13:20:03.180Z,74.10
2017-10-09T13:22:30.721Z,74.00
2017-10-09T13:24:58.283Z,74.10
2017-10-09T13:27:25.934Z,74.00
2017-10-09T13:29:53.509Z,74.00
2017-10-09T13:32:21.046Z,73.90
2017-10-09T13:34:48.624Z,74.10
2017-10-09T13:37:16.160Z,74.00
2017-10-09T13:39:43.739Z,74.00
2017-10-09T13:42:11.276Z,73.90
2017-10-09T13:44:38.848Z,73.80
2017-10-09T13:47:06.385Z,73.80
2017-10-09T13:49:33.980Z,73.60
2017-10-09T13:52:01.513Z,73.70
2017-10-09T13:54:29.094Z,73.70
2017-10-09T13:56:56.633Z,73.60
2017-10-09T13:59:24.204Z,73.60
2017-10-09T14:01:51.741Z,73.60
2017-10-09T14:04:20.085Z,73.50
2017-10-09T14:06:48.393Z,73.50
2017-10-09T14:09:16.737Z,73.60
2017-10-09T14:11:44.293Z,73.50
2017-10-09T14:14:11.883Z,73.30
2017-10-09T14:16:40.186Z,73.40
2017-10-09T14:19:07.765Z,73.40
2017-10-09T14:21:35.292Z,73.50
2017-10-09T14:24:03.794Z,73.50
2017-10-09T14:26:31.330Z,73.50
2017-10-09T14:28:59.673Z,73.60
2017-10-09T14:41:18.144Z,73.50
2017-10-09T14:43:45.737Z,73.50
2017-10-09T14:46:13.272Z,73.30
2017-10-09T14:48:40.808Z,73.40
2017-10-09T14:51:09.243Z,73.20
2017-10-09T14:53:37.467Z,73.80
2017-10-09T14:56:05.051Z,73.20
2017-10-09T14:58:32.638Z,73.20
2017-10-09T15:01:00.174Z,73.20
2017-10-09T15:03:27.722Z,73.30
2017-10-09T15:05:55.292Z,73.20
2017-10-09T15:08:22.823Z,73.20
2017-10-09T15:10:51.172Z,73.20
2017-10-09T15:13:18.715Z,73.20
2017-10-09T15:15:46.287Z,73.20
2017-10-09T15:18:13.824Z,73.00
2017-10-09T15:20:41.473Z,72.90
2017-10-09T15:23:09.052Z,73.00
2017-10-09T15:25:36.715Z,72.90
2017-10-09T15:28:05.785Z,72.90
2017-10-09T15:30:33.356Z,72.90
2017-10-09T15:33:00.893Z,72.90
2017-10-09T15:35:28.469Z,72.90
2017-10-09T15:37:56.005Z,72.90
2017-10-09T15:40:23.594Z,72.90
2017-10-09T15:42:51.130Z,72.80
2017-10-09T15:45:18.710Z,72.70
2017-10-09T15:47:46.238Z,73.20
2017-10-09T15:50:14.572Z,72.60
2017-10-09T15:52:42.108Z,72.60
2017-10-09T15:55:09.682Z,72.60
2017-10-09T15:57:37.334Z,72.50
2017-10-09T16:00:04.910Z,72.60
2017-10-09T16:02:32.441Z,72.70
2017-10-09T16:05:00.020Z,72.60
2017-10-09T16:07:27.555Z,72.70
2017-10-09T16:09:55.132Z,72.60
2017-10-09T16:12:22.667Z,72.60
2017-10-09T16:14:50.244Z,72.50
2017-10-09T16:17:17.788Z,72.50
2017-10-09T16:19:45.373Z,72.50
2017-10-09T16:22:12.913Z,72.70
2017-10-09T16:24:40.501Z,72.60
2017-10-09T16:27:08.032Z,72.50
2017-10-09T16:29:35.616Z,72.50
2017-10-09T16:32:03.153Z,72.50
2017-10-09T16:34:30.730Z,72.50
2017-10-09T16:36:58.271Z,72.60
2017-10-09T16:39:25.850Z,72.50
2017-10-09T16:41:53.408Z,72.50
2017-10-09T16:44:21.075Z,72.40
2017-10-09T16:46:48.624Z,72.40
2017-10-09T16:49:16.208Z,72.40
2017-10-09T16:51:43.746Z,72.40
2017-10-09T16:54:11.284Z,72.40
2017-10-09T16:56:38.876Z,72.30
2017-10-09T16:59:06.431Z,72.30
2017-10-09T17:01:34.005Z,72.30
2017-10-09T17:04:01.551Z,72.40
2017-10-09T17:06:29.133Z,72.40
2017-10-09T17:08:56.673Z,72.40
2017-10-09T17:11:24.247Z,72.60
2017-10-09T17:13:51.786Z,72.50
2017-10-09T17:16:29.052Z,72.50
2017-10-09T17:18:56.592Z,72.40
2017-10-09T17:21:25.019Z,72.50
2017-10-09T17:23:52.563Z,72.50
2017-10-09T17:26:31.764Z,72.50
2017-10-09T17:29:00.070Z,72.50
2017-10-09T17:31:27.649Z,72.50
2017-10-09T17:33:55.189Z,72.50
2017-10-09T17:36:33.500Z,72.50
2017-10-09T17:39:01.051Z,72.60
2017-10-09T17:41:29.392Z,72.60
2017-10-09T17:43:56.929Z,72.60
2017-10-09T17:46:24.503Z,72.60
2017-10-09T17:48:52.041Z,72.70
2017-10-09T17:51:19.610Z,72.70
2017-10-09T17:53:47.154Z,72.80
2017-10-09T17:56:14.728Z,72.80
2017-10-09T17:58:42.264Z,72.90
2017-10-09T18:01:09.848Z,72.90
2017-10-09T18:03:37.385Z,72.90
2017-10-09T18:06:04.960Z,72.90
2017-10-09T18:08:32.516Z,72.80
2017-10-09T18:11:00.178Z,72.80
2017-10-09T18:13:27.712Z,72.90
2017-10-09T18:15:55.288Z,72.90
2017-10-09T18:18:22.829Z,72.90
2017-10-09T18:20:50.419Z,72.90
2017-10-09T18:23:17.976Z,73.00
2017-10-09T18:25:45.524Z,73.00
2017-10-09T18:28:13.097Z,73.00
2017-10-09T18:30:40.673Z,73.10
2017-10-09T18:33:08.215Z,73.10
2017-10-09T18:35:35.804Z,73.10
2017-10-09T18:38:03.341Z,73.10
2017-10-09T18:40:30.896Z,73.10
2017-10-09T18:42:58.469Z,73.10
2017-10-09T18:45:26.015Z,73.90
2017-10-09T18:47:53.592Z,73.10
2017-10-09T18:50:21.168Z,73.20
2017-10-09T18:52:48.699Z,73.20
2017-10-09T18:55:16.240Z,73.20
2017-10-09T18:57:43.816Z,73.20
2017-10-09T19:00:11.357Z,73.10
2017-10-09T19:02:38.935Z,73.20
2017-10-09T19:05:06.479Z,73.20
2017-10-09T19:07:34.056Z,73.30
2017-10-09T19:10:01.601Z,73.30
2017-10-09T19:12:29.279Z,73.40
2017-10-09T19:14:56.816Z,73.40
2017-10-09T19:17:24.397Z,73.30
2017-10-09T19:19:51.936Z,73.40
2017-10-09T19:22:19.521Z,73.40
2017-10-09T19:24:47.064Z,73.40
2017-10-09T19:27:14.643Z,73.40
2017-10-09T19:29:42.185Z,73.50
2017-10-09T19:32:09.765Z,73.50
2017-10-09T19:34:37.303Z,73.50
2017-10-09T19:37:04.905Z,73.50
2017-10-09T19:39:32.437Z,73.50
2017-10-09T19:41:59.989Z,73.50
2017-10-09T19:44:27.569Z,73.50
2017-10-09T19:46:55.113Z,73.50
2017-10-09T19:49:22.692Z,73.60
2017-10-09T19:51:50.237Z,73.60
2017-10-09T19:54:17.813Z,73.60
2017-10-09T19:56:45.348Z,73.60
2017-10-09T19:59:12.920Z,73.60
2017-10-09T20:01:40.452Z,73.60
2017-10-09T20:04:08.021Z,73.70
2017-10-09T20:06:35.556Z,73.80
2017-10-09T20:09:03.901Z,73.80
2017-10-09T20:11:31.450Z,73.70
2017-10-09T20:13:59.097Z,73.70
2017-10-09T20:16:26.659Z,73.70
2017-10-09T20:18:54.237Z,73.80
2017-10-09T20:21:21.776Z,73.80
2017-10-09T20:23:49.356Z,73.70
2017-10-09T20:26:16.896Z,73.70
2017-10-09T20:28:44.473Z,73.70
2017-10-09T20:31:12.016Z,73.70
2017-10-09T20:33:39.588Z,73.60
2017-10-09T20:36:07.122Z,73.70
2017-10-09T20:38:34.711Z,73.60
2017-10-09T20:41:02.270Z,73.50
2017-10-09T20:43:29.843Z,73.50
2017-10-09T20:45:57.383Z,73.60
2017-10-09T20:48:24.992Z,73.50
2017-10-09T20:50:53.291Z,73.50
2017-10-09T20:53:20.977Z,73.50
2017-10-09T20:55:48.525Z,73.40
2017-10-09T20:58:16.102Z,73.40
2017-10-09T21:00:43.647Z,73.40
2017-10-09T21:03:11.221Z,73.30
2017-10-09T21:05:38.762Z,73.30
2017-10-09T21:08:06.365Z,73.30
2017-10-09T21:10:33.906Z,73.20
2017-10-09T21:13:01.450Z,73.20
2017-10-09T21:15:29.025Z,73.20
2017-10-09T21:17:56.559Z,73.20
2017-10-09T21:20:24.134Z,73.20
2017-10-09T21:22:51.664Z,73.20
2017-10-09T21:25:20.001Z,73.40
2017-10-09T21:27:47.541Z,73.30
2017-10-09T21:30:15.123Z,73.20
2017-10-09T21:32:42.653Z,73.20
2017-10-09T21:35:10.227Z,73.20
2017-10-09T21:37:37.763Z,73.30
2017-10-09T21:40:05.338Z,73.30
2017-10-09T21:42:32.876Z,73.30
2017-10-09T21:45:00.481Z,73.30
2017-10-09T21:47:28.009Z,73.30
2017-10-09T21:49:55.553Z,73.30
2017-10-09T21:52:23.126Z,73.40
2017-10-09T21:54:50.660Z,73.40
2017-10-09T21:57:18.993Z,73.30
2017-10-09T21:59:46.529Z,73.30
2017-10-09T22:02:14.099Z,73.30
2017-10-09T22:04:41.638Z,73.30
2017-10-09T22:07:09.213Z,73.30
2017-10-09T22:09:36.767Z,73.30
2017-10-09T22:12:04.333Z,73.30
2017-10-09T22:14:31.864Z,73.40
2017-10-09T22:16:59.396Z,73.40
2017-10-09T22:19:26.973Z,73.40
2017-10-09T22:21:55.275Z,73.30
2017-10-09T22:24:22.849Z,73.30
2017-10-09T22:26:50.388Z,73.30
2017-10-09T22:29:17.957Z,73.30
2017-10-09T22:31:45.542Z,73.30
2017-10-09T22:34:13.842Z,73.30
2017-10-09T22:36:41.380Z,73.20
2017-10-09T22:39:08.963Z,73.30
2017-10-09T22:41:36.582Z,73.30
2017-10-09T22:44:04.125Z,73.20
2017-10-09T22:46:31.692Z,73.20
2017-10-09T22:48:59.375Z,73.20
2017-10-09T22:51:26.991Z,73.20
2017-10-09T22:53:55.299Z,73.20
2017-10-09T22:56:22.881Z,73.20
2017-10-09T22:58:50.417Z,73.20
2017-10-09T23:01:17.944Z,73.30
2017-10-09T23:03:46.277Z,73.30
2017-10-09T23:06:13.814Z,73.10
2017-10-09T23:08:41.402Z,73.20
2017-10-09T23:11:08.948Z,73.20
2017-10-09T23:13:36.479Z,73.20
2017-10-09T23:16:04.065Z,73.10
2017-10-09T23:18:31.604Z,73.10
2017-10-09T23:20:59.134Z,73.10
2017-10-09T23:23:27.485Z,73.10
2017-10-09T23:25:55.024Z,73.10
2017-10-09T23:28:22.560Z,73.10
2017-10-09T23:30:50.135Z,73.10
2017-10-09T23:33:17.669Z,73.10
2017-10-09T23:35:45.252Z,73.10
2017-10-09T23:38:12.822Z,73.10
2017-10-09T23:40:40.408Z,73.10
2017-10-09T23:43:07.950Z,73.10
2017-10-09T23:45:35.488Z,73.10
2017-10-09T23:48:03.066Z,73.00
2017-10-09T23:50:30.609Z,73.10
2017-10-09T23:52:58.188Z,73.00
2017-10-09T23:55:25.738Z,73.00
2017-10-09T23:57:53.276Z,73.10
